createdAt,value
2023-02-08T00:01:26.911Z,14.90
2023-02-08T00:03:55.099Z,14.00
2023-02-08T00:06:23.466Z,15.85
2023-02-08T00:08:51.456Z,13.85
2023-02-08T00:11:19.329Z,14.23
2023-02-08T00:13:47.398Z,14.68
2023-02-08T00:16:18.306Z,15.30
2023-02-08T00:18:46.524Z,15.27
2023-02-08T00:21:16.749Z,14.73
2023-02-08T00:23:44.721Z,16.60
2023-02-08T00:26:13.106Z,16.20
2023-02-08T00:28:42.257Z,15.48
2023-02-08T00:31:10.300Z,15.88
2023-02-08T00:33:39.742Z,16.30
2023-02-08T00:36:09.458Z,15.75
2023-02-08T00:38:37.625Z,14.35
2023-02-08T00:41:06.502Z,14.25
2023-02-08T00:43:34.984Z,16.02
2023-02-08T00:46:04.312Z,15.00
2023-02-08T00:48:33.250Z,14.85
2023-02-08T00:51:04.911Z,14.18
2023-02-08T00:53:36.845Z,14.93
2023-02-08T00:56:07.062Z,15.25
2023-02-08T00:58:36.038Z,15.98
2023-02-08T01:01:05.770Z,15.18
2023-02-08T01:03:34.550Z,15.85
2023-02-08T01:06:05.432Z,14.90
2023-02-08T01:08:33.908Z,14.40
2023-02-08T01:11:07.544Z,16.08
2023-02-08T01:13:35.784Z,15.60
2023-02-08T01:16:08.840Z,15.68
2023-02-08T01:18:36.963Z,15.35
2023-02-08T01:21:08.452Z,15.77
2023-02-08T01:23:37.267Z,14.63
2023-02-08T01:26:06.464Z,15.88
2023-02-08T01:28:34.654Z,15.90
2023-02-08T01:31:07.132Z,16.48
2023-02-08T01:33:35.394Z,15.48
2023-02-08T01:36:04.018Z,15.25
2023-02-08T01:38:34.525Z,15.07
2023-02-08T01:41:03.760Z,15.05
2023-02-08T01:43:36.183Z,14.15
2023-02-08T01:46:04.380Z,14.82
2023-02-08T01:48:37.833Z,15.38
2023-02-08T01:53:40.974Z,14.07
2023-02-08T01:56:14.166Z,14.57
2023-02-08T01:58:47.488Z,13.98
2023-02-08T02:01:16.795Z,13.85
2023-02-08T02:03:45.121Z,15.00
2023-02-08T02:06:19.356Z,14.63
2023-02-08T02:08:56.803Z,15.23
2023-02-08T02:11:25.639Z,14.80
2023-02-08T02:13:54.909Z,14.55
2023-02-08T02:16:23.256Z,14.40
2023-02-08T02:18:52.116Z,15.10
2023-02-08T02:21:38.687Z,14.50
2023-02-08T02:24:42.194Z,14.13
2023-02-08T02:27:30.909Z,14.57
2023-02-08T02:30:33.612Z,15.25
2023-02-08T02:33:14.099Z,14.27
2023-02-08T02:35:52.837Z,14.18
2023-02-08T02:38:31.255Z,14.73
2023-02-08T02:41:07.218Z,14.88
2023-02-08T02:43:46.396Z,14.27
2023-02-08T02:46:25.973Z,13.73
2023-02-08T02:49:03.331Z,14.73
2023-02-08T02:51:39.633Z,15.32
2023-02-08T02:54:12.518Z,15.65
2023-02-08T02:56:45.098Z,14.63
2023-02-08T02:59:15.892Z,14.65
2023-02-08T03:01:45.745Z,14.27
2023-02-08T03:04:17.743Z,15.20
2023-02-08T03:07:01.054Z,14.63
2023-02-08T03:09:47.000Z,14.20
2023-02-08T03:12:30.720Z,14.70
2023-02-08T03:17:49.272Z,14.85
2023-02-08T03:20:23.766Z,15.18
2023-02-08T03:23:00.372Z,13.77
2023-02-08T03:25:36.593Z,13.32
2023-02-08T03:28:12.120Z,14.93
2023-02-08T03:30:48.431Z,15.02
2023-02-08T03:33:22.568Z,14.95
2023-02-08T03:35:58.268Z,14.52
2023-02-08T03:38:30.296Z,14.52
2023-02-08T03:41:01.585Z,15.90
2023-02-08T03:43:33.765Z,14.90
2023-02-08T03:46:08.638Z,14.82
2023-02-08T03:48:39.866Z,14.65
2023-02-08T03:51:10.837Z,14.18
2023-02-08T03:53:41.448Z,15.43
2023-02-08T03:56:15.241Z,14.82
2023-02-08T03:58:47.976Z,14.18
2023-02-08T04:01:20.524Z,15.98
2023-02-08T04:03:53.557Z,16.50
2023-02-08T04:06:23.701Z,15.13
2023-02-08T04:08:51.852Z,15.60
2023-02-08T04:11:19.993Z,14.48
2023-02-08T04:13:48.022Z,16.80
2023-02-08T04:16:16.159Z,14.88
2023-02-08T04:18:44.134Z,15.75
2023-02-08T04:21:12.319Z,14.57
2023-02-08T04:23:41.737Z,15.85
2023-02-08T04:26:09.828Z,15.30
2023-02-08T04:28:37.787Z,15.40
2023-02-08T04:31:06.137Z,15.07
2023-02-08T04:33:34.330Z,16.02
2023-02-08T04:36:03.033Z,15.88
2023-02-08T04:38:31.432Z,15.88
2023-02-08T04:41:00.741Z,16.98
2023-02-08T04:43:28.745Z,16.10
2023-02-08T04:45:56.850Z,15.57
2023-02-08T04:48:25.046Z,16.58
2023-02-08T04:50:56.309Z,17.25
2023-02-08T04:53:24.725Z,16.58
2023-02-08T04:55:53.409Z,14.55
2023-02-08T04:58:23.030Z,16.27
2023-02-08T05:00:51.266Z,16.00
2023-02-08T05:03:19.352Z,16.30
2023-02-08T05:05:47.377Z,16.85
2023-02-08T05:08:15.466Z,15.90
2023-02-08T05:10:46.036Z,14.57
2023-02-08T05:13:13.990Z,15.52
2023-02-08T05:15:43.483Z,16.67
2023-02-08T05:18:11.665Z,17.17
2023-02-08T05:20:40.116Z,15.60
2023-02-08T05:23:08.398Z,16.17
2023-02-08T05:25:36.469Z,16.85
2023-02-08T05:28:04.624Z,16.95
2023-02-08T05:30:32.617Z,16.73
2023-02-08T05:33:02.244Z,16.35
2023-02-08T05:35:30.332Z,16.33
2023-02-08T05:37:58.255Z,17.73
2023-02-08T05:40:26.224Z,17.33
2023-02-08T05:42:54.449Z,17.40
2023-02-08T05:45:22.632Z,17.52
2023-02-08T05:47:50.645Z,16.20
2023-02-08T05:50:20.183Z,18.15
2023-02-08T05:52:51.890Z,17.20
2023-02-08T05:55:19.929Z,18.33
2023-02-08T05:57:47.977Z,17.17
2023-02-08T06:00:17.262Z,17.23
2023-02-08T06:02:45.668Z,16.65
2023-02-08T06:05:14.361Z,18.13
2023-02-08T06:07:43.808Z,16.35
2023-02-08T06:10:14.445Z,17.98
2023-02-08T06:12:43.547Z,18.42
2023-02-08T06:15:12.933Z,17.95
2023-02-08T06:17:41.003Z,17.92
2023-02-08T06:20:11.146Z,17.98
2023-02-08T06:22:40.038Z,19.60
2023-02-08T06:25:11.126Z,17.35
2023-02-08T06:27:39.764Z,16.67
2023-02-08T06:30:08.842Z,18.52
2023-02-08T06:32:37.271Z,17.58
2023-02-08T06:35:07.272Z,17.02
2023-02-08T06:37:35.360Z,18.98
2023-02-08T06:40:04.255Z,17.38
2023-02-08T06:42:34.204Z,17.80
2023-02-08T06:45:02.447Z,17.42
2023-02-08T06:47:31.837Z,16.90
2023-02-08T06:50:00.044Z,17.60
2023-02-08T06:52:28.108Z,17.00
2023-02-08T06:54:56.518Z,17.25
2023-02-08T06:57:24.876Z,17.30
2023-02-08T06:59:54.479Z,17.40
2023-02-08T07:02:23.476Z,18.33
2023-02-08T07:04:51.898Z,17.20
2023-02-08T07:07:21.202Z,16.80
2023-02-08T07:09:49.460Z,18.27
2023-02-08T07:12:18.331Z,17.20
2023-02-08T07:14:46.877Z,16.48
2023-02-08T07:17:16.700Z,16.52
2023-02-08T07:19:45.336Z,17.10
2023-02-08T07:22:13.670Z,17.02
2023-02-08T07:24:43.008Z,16.70
2023-02-08T07:27:13.899Z,17.77
2023-02-08T07:29:42.306Z,17.58
2023-02-08T07:32:11.635Z,17.60
2023-02-08T07:34:41.678Z,18.13
2023-02-08T07:37:09.812Z,16.88
2023-02-08T07:39:37.880Z,18.92
2023-02-08T07:42:06.755Z,17.60
2023-02-08T07:44:42.609Z,17.42
2023-02-08T07:47:12.537Z,17.20
2023-02-08T07:49:41.990Z,17.52
2023-02-08T07:52:10.071Z,16.90
2023-02-08T07:54:39.017Z,16.77
2023-02-08T07:57:10.139Z,17.23
2023-02-08T07:59:40.229Z,16.35
2023-02-08T08:02:10.105Z,16.40
2023-02-08T08:04:38.440Z,18.35
2023-02-08T08:07:08.045Z,16.63
2023-02-08T08:09:36.354Z,19.02
2023-02-08T08:12:05.378Z,18.95
2023-02-08T08:14:33.611Z,17.50
2023-02-08T08:17:01.622Z,17.23
2023-02-08T08:19:29.860Z,16.98
2023-02-08T08:21:59.249Z,17.98
2023-02-08T08:24:30.312Z,17.80
2023-02-08T08:26:58.766Z,17.30
2023-02-08T08:29:27.068Z,16.98
2023-02-08T08:31:55.423Z,17.77
2023-02-08T08:34:29.707Z,18.35
2023-02-08T08:36:57.851Z,18.55
2023-02-08T08:39:27.421Z,17.50
2023-02-08T08:41:58.586Z,16.17
2023-02-08T08:44:26.900Z,16.77
2023-02-08T08:46:56.812Z,16.77
2023-02-08T08:49:25.618Z,17.27
2023-02-08T08:51:53.669Z,17.50
2023-02-08T08:54:23.538Z,16.83
2023-02-08T08:56:52.475Z,15.50
2023-02-08T08:59:22.117Z,16.13
2023-02-08T09:01:50.517Z,14.63
2023-02-08T09:04:18.676Z,15.15
2023-02-08T09:06:46.704Z,15.40
2023-02-08T09:09:15.284Z,14.20
2023-02-08T09:11:43.978Z,14.63
2023-02-08T09:14:14.996Z,14.48
2023-02-08T09:16:47.984Z,14.35
2023-02-08T09:19:17.204Z,14.90
2023-02-08T09:21:45.886Z,14.55
2023-02-08T09:24:14.759Z,14.73
2023-02-08T09:26:43.014Z,13.52
2023-02-08T09:29:11.237Z,14.80
2023-02-08T09:31:39.951Z,14.32
2023-02-08T09:34:10.266Z,13.75
2023-02-08T09:36:41.479Z,14.63
2023-02-08T09:39:13.500Z,13.65
2023-02-08T09:42:25.737Z,12.68
2023-02-08T09:45:14.144Z,13.35
2023-02-08T09:47:49.782Z,13.23
2023-02-08T09:50:22.629Z,14.00
2023-02-08T09:52:59.241Z,13.65
2023-02-08T09:55:33.357Z,13.07
2023-02-08T09:58:06.334Z,12.18
2023-02-08T10:00:38.878Z,13.38
2023-02-08T10:03:11.007Z,13.77
2023-02-08T10:05:40.625Z,11.50
2023-02-08T10:08:12.226Z,11.98
2023-02-08T10:10:50.909Z,12.55
2023-02-08T10:13:41.694Z,11.73
2023-02-08T10:16:19.580Z,11.57
2023-02-08T10:18:58.345Z,11.05
2023-02-08T10:21:46.625Z,11.15
2023-02-08T10:24:31.027Z,11.45
2023-02-08T10:27:06.725Z,11.73
2023-02-08T10:29:56.954Z,10.73
2023-02-08T10:32:39.390Z,11.23
2023-02-08T10:35:13.943Z,11.13
2023-02-08T10:37:46.494Z,10.75
2023-02-08T10:40:25.408Z,10.93
2023-02-08T10:43:01.982Z,10.02
2023-02-08T10:45:37.328Z,11.20
2023-02-08T10:48:12.737Z,10.32
2023-02-08T10:50:43.554Z,10.32
2023-02-08T10:53:17.058Z,10.38
2023-02-08T10:58:18.260Z,9.75
2023-02-08T11:00:47.769Z,9.05
2023-02-08T11:03:19.791Z,9.48
2023-02-08T11:05:48.370Z,9.45
2023-02-08T11:08:20.480Z,8.30
2023-02-08T11:10:58.506Z,9.70
2023-02-08T11:13:35.425Z,10.07
2023-02-08T11:16:07.330Z,9.05
2023-02-08T11:18:39.059Z,9.82
2023-02-08T11:21:11.240Z,9.57
2023-02-08T11:23:43.914Z,11.57
2023-02-08T11:26:20.693Z,9.77
2023-02-08T11:29:01.284Z,9.40
2023-02-08T11:31:30.169Z,8.90
2023-02-08T11:34:03.540Z,8.30
2023-02-08T11:36:33.271Z,7.35
2023-02-08T11:39:16.275Z,7.72
2023-02-08T11:41:45.932Z,7.60
2023-02-08T11:44:22.609Z,6.63
2023-02-08T11:46:52.171Z,7.82
2023-02-08T11:49:26.942Z,7.20
2023-02-08T11:51:55.522Z,6.78
2023-02-08T11:54:41.361Z,7.05
2023-02-08T11:57:19.269Z,6.65
2023-02-08T11:59:48.025Z,5.93
2023-02-08T12:02:30.411Z,6.15
2023-02-08T12:04:59.787Z,6.30
2023-02-08T12:07:50.458Z,5.30
2023-02-08T12:10:48.310Z,6.00
2023-02-08T12:13:35.118Z,5.65
2023-02-08T12:16:37.526Z,5.32
2023-02-08T12:19:31.510Z,5.10
2023-02-08T12:22:07.663Z,4.30
2023-02-08T12:24:46.857Z,4.75
2023-02-08T12:27:31.281Z,4.75
2023-02-08T12:30:08.561Z,5.53
2023-02-08T12:32:54.442Z,4.68
2023-02-08T12:36:05.302Z,4.72
2023-02-08T12:39:26.699Z,4.43
2023-02-08T12:42:43.875Z,4.32
2023-02-08T12:45:54.253Z,4.90
2023-02-08T12:48:56.172Z,4.45
2023-02-08T12:51:42.462Z,4.30
2023-02-08T12:54:16.522Z,4.75
2023-02-08T12:57:00.346Z,5.00
2023-02-08T12:59:37.288Z,4.38
2023-02-08T13:02:16.323Z,4.13
2023-02-08T13:04:48.317Z,4.25
2023-02-08T13:07:22.443Z,4.75
2023-02-08T13:09:58.816Z,4.57
2023-02-08T13:12:30.857Z,4.18
2023-02-08T13:15:09.247Z,4.55
2023-02-08T13:17:46.596Z,4.65
2023-02-08T13:20:36.224Z,5.05
2023-02-08T13:23:12.283Z,4.65
2023-02-08T13:25:44.393Z,5.05
2023-02-08T13:28:20.472Z,5.70
2023-02-08T13:31:00.299Z,4.70
2023-02-08T13:33:37.770Z,5.63
2023-02-08T13:36:07.482Z,5.00
2023-02-08T13:38:38.358Z,4.22
2023-02-08T13:41:16.368Z,5.13
2023-02-08T13:43:51.391Z,5.30
2023-02-08T13:46:23.066Z,5.10
2023-02-08T13:48:55.139Z,4.45
2023-02-08T13:51:56.580Z,5.13
2023-02-08T13:54:25.036Z,4.72
2023-02-08T13:56:54.488Z,4.63
2023-02-08T13:59:33.736Z,4.50
2023-02-08T14:02:28.341Z,4.68
2023-02-08T14:05:16.701Z,4.18
2023-02-08T14:07:48.389Z,4.50
2023-02-08T14:10:30.683Z,4.25
2023-02-08T14:13:04.848Z,4.90
2023-02-08T14:15:41.024Z,5.13
2023-02-08T14:18:34.252Z,5.00
2023-02-08T14:21:06.012Z,4.40
2023-02-08T14:23:40.193Z,4.60
2023-02-08T14:26:11.062Z,4.90
2023-02-08T14:28:45.211Z,4.50
2023-02-08T14:31:15.471Z,4.70
2023-02-08T14:33:54.122Z,5.10
2023-02-08T14:36:29.657Z,4.60
2023-02-08T14:39:22.845Z,3.88
2023-02-08T14:42:03.298Z,4.47
2023-02-08T14:45:05.777Z,4.47
2023-02-08T14:47:55.449Z,4.25
2023-02-08T14:50:29.194Z,4.30
2023-02-08T14:53:06.544Z,4.47
2023-02-08T14:55:42.523Z,5.13
2023-02-08T14:58:16.576Z,4.05
2023-02-08T15:00:45.870Z,4.38
2023-02-08T15:03:18.898Z,3.67
2023-02-08T15:06:12.771Z,4.20
2023-02-08T15:08:41.173Z,4.43
2023-02-08T15:11:22.708Z,4.35
2023-02-08T15:13:51.936Z,4.32
2023-02-08T15:16:21.302Z,3.63
2023-02-08T15:18:54.917Z,4.40
2023-02-08T15:21:31.622Z,3.58
2023-02-08T15:24:02.587Z,4.55
2023-02-08T15:26:32.365Z,4.60
2023-02-08T15:29:01.065Z,4.88
2023-02-08T15:31:33.814Z,4.13
2023-02-08T15:34:03.977Z,4.47
2023-02-08T15:36:35.918Z,4.20
2023-02-08T15:39:12.105Z,4.28
2023-02-08T15:41:40.280Z,4.07
2023-02-08T15:44:20.631Z,4.03
2023-02-08T15:46:56.709Z,4.55
2023-02-08T15:49:33.813Z,4.10
2023-02-08T15:52:04.392Z,4.10
2023-02-08T15:54:32.858Z,5.57
2023-02-08T15:57:04.364Z,4.22
2023-02-08T15:59:35.587Z,4.07
2023-02-08T16:02:19.532Z,3.55
2023-02-08T16:04:47.951Z,6.32
2023-02-08T16:07:26.669Z,4.40
2023-02-08T16:09:55.151Z,5.25
2023-02-08T16:12:25.271Z,3.97
2023-02-08T16:14:56.459Z,4.68
2023-02-08T16:17:43.056Z,4.70
2023-02-08T16:20:29.150Z,4.45
2023-02-08T16:23:30.423Z,4.78
2023-02-08T16:26:10.756Z,4.80
2023-02-08T16:28:38.855Z,5.50
2023-02-08T16:31:08.059Z,5.20
2023-02-08T16:33:37.997Z,5.63
2023-02-08T16:36:24.181Z,4.82
2023-02-08T16:39:24.103Z,5.00
2023-02-08T16:42:15.541Z,5.15
2023-02-08T16:45:05.870Z,4.70
2023-02-08T16:47:38.033Z,5.18
2023-02-08T16:50:07.304Z,5.90
2023-02-08T16:52:35.849Z,5.10
2023-02-08T16:55:06.661Z,5.57
2023-02-08T16:57:42.952Z,5.47
2023-02-08T17:00:18.343Z,5.35
2023-02-08T17:02:46.518Z,5.32
2023-02-08T17:05:15.965Z,5.53
2023-02-08T17:07:44.589Z,5.05
2023-02-08T17:10:22.599Z,5.78
2023-02-08T17:12:50.731Z,6.38
2023-02-08T17:15:21.143Z,5.47
2023-02-08T17:17:49.733Z,5.85
2023-02-08T17:20:34.423Z,6.00
2023-02-08T17:23:09.276Z,6.03
2023-02-08T17:25:39.865Z,6.80
2023-02-08T17:28:25.203Z,6.32
2023-02-08T17:31:13.630Z,6.78
2023-02-08T17:34:08.429Z,7.15
2023-02-08T17:36:46.863Z,7.05
2023-02-08T17:39:24.585Z,7.28
2023-02-08T17:42:27.685Z,7.15
2023-02-08T17:45:07.519Z,6.40
2023-02-08T17:47:45.136Z,7.78
2023-02-08T17:50:32.645Z,6.47
2023-02-08T17:53:11.834Z,7.40
2023-02-08T17:55:52.559Z,8.35
2023-02-08T17:58:32.522Z,8.43
2023-02-08T18:01:13.170Z,7.55
2023-02-08T18:03:45.843Z,6.30
2023-02-08T18:06:19.756Z,6.93
2023-02-08T18:08:48.594Z,7.05
2023-02-08T18:11:20.060Z,6.78
2023-02-08T18:13:50.452Z,5.63
2023-02-08T18:16:20.626Z,6.40
2023-02-08T18:18:48.828Z,6.90
2023-02-08T18:21:18.420Z,7.10
2023-02-08T18:23:47.670Z,6.53
2023-02-08T18:26:18.100Z,7.00
2023-02-08T18:28:46.849Z,6.55
2023-02-08T18:31:20.164Z,5.95
2023-02-08T18:36:21.832Z,5.55
2023-02-08T18:38:52.658Z,6.25
2023-02-08T18:41:23.675Z,6.25
2023-02-08T18:43:53.271Z,6.85
2023-02-08T18:46:24.986Z,6.20
2023-02-08T18:48:54.191Z,6.88
2023-02-08T18:51:24.025Z,5.75
2023-02-08T18:53:54.084Z,6.70
2023-02-08T18:56:24.273Z,6.00
2023-02-08T18:58:53.227Z,5.90
2023-02-08T19:01:24.963Z,5.75
2023-02-08T19:03:54.121Z,5.47
2023-02-08T19:06:24.707Z,5.68
2023-02-08T19:08:56.040Z,6.00
2023-02-08T19:11:26.240Z,5.80
2023-02-08T19:13:57.280Z,5.78
2023-02-08T19:16:27.696Z,5.82
2023-02-08T19:18:56.456Z,5.80
2023-02-08T19:21:25.125Z,6.10
2023-02-08T19:23:54.350Z,5.32
2023-02-08T19:26:24.697Z,6.03
2023-02-08T19:28:57.058Z,6.20
2023-02-08T19:31:28.626Z,5.95
2023-02-08T19:33:59.307Z,5.80
2023-02-08T19:36:29.777Z,5.68
2023-02-08T19:38:58.665Z,5.68
2023-02-08T19:41:28.867Z,5.68
2023-02-08T19:43:56.907Z,6.00
2023-02-08T19:46:28.103Z,5.40
2023-02-08T19:49:00.192Z,6.40
2023-02-08T19:51:30.294Z,6.18
2023-02-08T19:53:58.556Z,5.78
2023-02-08T19:56:26.534Z,5.78
2023-02-08T19:58:55.267Z,5.82
2023-02-08T20:01:24.340Z,5.97
2023-02-08T20:03:55.067Z,6.45
2023-02-08T20:06:25.926Z,6.22
2023-02-08T20:08:54.740Z,6.03
2023-02-08T20:11:24.795Z,5.60
2023-02-08T20:13:53.182Z,6.07
2023-02-08T20:16:22.656Z,5.57
2023-02-08T20:18:51.536Z,6.25
2023-02-08T20:21:21.672Z,5.40
2023-02-08T20:23:50.698Z,5.57
2023-02-08T20:26:20.987Z,5.80
2023-02-08T20:28:51.327Z,6.00
2023-02-08T20:31:21.826Z,5.47
2023-02-08T20:33:50.830Z,5.97
2023-02-08T20:36:22.005Z,5.68
2023-02-08T20:38:52.625Z,5.22
2023-02-08T20:41:22.876Z,5.35
2023-02-08T20:43:51.205Z,5.10
2023-02-08T20:46:22.225Z,5.68
2023-02-08T20:48:50.460Z,4.93
2023-02-08T20:51:22.957Z,4.93
2023-02-08T20:53:52.519Z,5.32
2023-02-08T20:56:22.974Z,4.85
2023-02-08T20:58:51.314Z,5.53
2023-02-08T21:01:21.333Z,5.22
2023-02-08T21:03:49.776Z,5.32
2023-02-08T21:06:19.797Z,5.43
2023-02-08T21:08:51.665Z,6.03
2023-02-08T21:11:21.471Z,5.82
2023-02-08T21:13:50.214Z,5.93
2023-02-08T21:16:19.109Z,5.47
2023-02-08T21:18:48.046Z,5.63
2023-02-08T21:21:16.788Z,6.10
2023-02-08T21:23:45.345Z,5.60
2023-02-08T21:26:17.765Z,6.50
2023-02-08T21:28:45.975Z,6.68
2023-02-08T21:31:22.049Z,5.57
2023-02-08T21:33:50.964Z,4.70
2023-02-08T21:36:21.043Z,6.35
2023-02-08T21:38:49.220Z,4.72
2023-02-08T21:41:21.224Z,5.03
2023-02-08T21:43:50.165Z,5.10
2023-02-08T21:46:19.215Z,5.07
2023-02-08T21:49:05.131Z,5.32
2023-02-08T21:51:51.305Z,6.40
2023-02-08T21:54:38.615Z,5.97
2023-02-08T21:57:10.916Z,4.60
2023-02-08T21:59:39.334Z,5.68
2023-02-08T22:02:09.241Z,5.40
2023-02-08T22:04:37.906Z,5.28
2023-02-08T22:07:05.914Z,5.60
2023-02-08T22:09:35.917Z,5.15
2023-02-08T22:12:03.970Z,4.70
2023-02-08T22:14:34.961Z,5.00
2023-02-08T22:17:03.121Z,5.65
2023-02-08T22:19:31.177Z,4.97
2023-02-08T22:21:59.090Z,4.97
2023-02-08T22:24:27.087Z,5.28
2023-02-08T22:26:55.277Z,4.97
2023-02-08T22:29:23.516Z,5.47
2023-02-08T22:31:53.196Z,5.00
2023-02-08T22:34:21.307Z,5.57
2023-02-08T22:36:49.458Z,5.03
2023-02-08T22:39:17.974Z,5.47
2023-02-08T22:41:45.947Z,4.93
2023-02-08T22:44:14.028Z,5.13
2023-02-08T22:46:42.251Z,4.88
2023-02-08T22:49:11.939Z,5.82
2023-02-08T22:51:39.860Z,5.32
2023-02-08T22:54:07.811Z,5.20
2023-02-08T22:56:35.720Z,5.65
2023-02-08T22:59:03.724Z,5.22
2023-02-08T23:01:31.887Z,5.13
2023-02-08T23:04:01.831Z,5.25
2023-02-08T23:06:31.629Z,5.32
2023-02-08T23:08:59.725Z,5.40
2023-02-08T23:11:27.886Z,5.75
2023-02-08T23:13:55.942Z,5.72
2023-02-08T23:16:25.755Z,5.55
2023-02-08T23:18:54.030Z,5.22
2023-02-08T23:21:22.759Z,5.85
2023-02-08T23:23:52.191Z,5.07
2023-02-08T23:26:21.943Z,5.25
2023-02-08T23:28:51.593Z,5.22
2023-02-08T23:31:20.211Z,5.90
2023-02-08T23:33:49.143Z,5.82
2023-02-08T23:36:20.725Z,5.90
2023-02-08T23:38:49.062Z,5.63
2023-02-08T23:41:20.141Z,5.90
2023-02-08T23:43:48.352Z,5.38
2023-02-08T23:46:19.399Z,5.45
2023-02-08T23:48:47.912Z,5.32
2023-02-08T23:51:17.493Z,5.30
2023-02-08T23:53:46.216Z,6.05
2023-02-08T23:56:17.435Z,5.63
2023-02-08T23:58:48.439Z,5.63
